createdAt,value
2018-09-22T00:02:50.442Z,10.95
2018-09-22T00:07:43.823Z,8.85
2018-09-22T00:12:37.386Z,7.97
2018-09-22T00:17:31.187Z,8.20
2018-09-22T00:22:24.527Z,7.87
2018-09-22T00:27:18.239Z,7.80
2018-09-22T00:32:11.595Z,8.10
2018-09-22T00:37:05.145Z,8.00
2018-09-22T00:41:59.317Z,7.70
2018-09-22T00:46:53.241Z,8.08
2018-09-22T00:51:46.468Z,7.65
2018-09-22T00:56:39.665Z,8.00
2018-09-22T01:01:33.983Z,7.70
2018-09-22T01:06:27.887Z,7.70
2018-09-22T01:11:21.096Z,8.33
2018-09-22T01:16:15.453Z,10.10
2018-09-22T01:21:08.769Z,8.85
2018-09-22T01:26:02.078Z,7.80
2018-09-22T01:30:55.996Z,7.97
2018-09-22T01:35:49.305Z,8.48
2018-09-22T01:40:42.577Z,7.72
2018-09-22T01:45:38.496Z,8.08
2018-09-22T01:50:31.785Z,8.20
2018-09-22T01:55:26.053Z,8.30
2018-09-22T02:00:19.453Z,8.63
2018-09-22T02:05:13.550Z,9.43
2018-09-22T02:10:06.972Z,9.00
2018-09-22T02:15:00.761Z,8.95
2018-09-22T02:19:54.007Z,8.98
2018-09-22T02:24:47.350Z,8.78
2018-09-22T02:29:40.593Z,8.55
2018-09-22T02:34:33.854Z,9.30
2018-09-22T02:39:27.401Z,8.95
2018-09-22T02:44:20.872Z,8.83
2018-09-22T02:49:14.182Z,8.98
2018-09-22T02:54:08.002Z,8.58
2018-09-22T02:59:01.327Z,9.18
2018-09-22T03:03:55.078Z,8.55
2018-09-22T03:08:48.384Z,8.13
2018-09-22T03:13:42.078Z,8.25
2018-09-22T03:18:36.251Z,9.75
2018-09-22T03:23:29.747Z,9.13
2018-09-22T03:28:23.020Z,8.60
2018-09-22T03:33:17.075Z,9.60
2018-09-22T03:38:10.433Z,8.20
2018-09-22T03:43:04.230Z,8.05
2018-09-22T03:47:57.493Z,7.65
2018-09-22T03:52:51.117Z,8.45
2018-09-22T03:57:44.436Z,9.20
2018-09-22T04:02:37.625Z,7.95
2018-09-22T04:07:30.897Z,7.65
2018-09-22T04:12:24.166Z,7.17
2018-09-22T04:17:17.383Z,7.53
2018-09-22T04:22:10.480Z,7.15
2018-09-22T04:27:04.743Z,7.70
2018-09-22T04:31:57.908Z,7.72
2018-09-22T04:36:51.533Z,8.20
2018-09-22T04:41:46.411Z,7.58
2018-09-22T04:46:39.678Z,8.10
2018-09-22T04:51:32.822Z,7.30
2018-09-22T04:56:26.041Z,7.10
2018-09-22T05:01:19.780Z,6.83
2018-09-22T05:06:12.941Z,6.33
2018-09-22T05:11:06.434Z,6.72
2018-09-22T05:15:59.746Z,6.15
2018-09-22T05:20:54.858Z,6.28
2018-09-22T05:25:48.649Z,6.22
2018-09-22T05:30:41.855Z,6.55
2018-09-22T05:35:34.986Z,6.00
2018-09-22T05:40:28.882Z,5.97
2018-09-22T05:45:22.199Z,6.62
2018-09-22T05:50:15.429Z,5.58
2018-09-22T05:55:08.786Z,7.12
2018-09-22T06:00:02.062Z,5.87
2018-09-22T06:04:58.338Z,6.17
2018-09-22T06:09:51.597Z,5.92
2018-09-22T06:14:44.818Z,5.87
2018-09-22T06:19:38.251Z,5.87
2018-09-22T06:24:31.811Z,6.15
2018-09-22T06:29:25.150Z,5.78
2018-09-22T06:34:18.402Z,6.50
2018-09-22T06:39:12.398Z,7.60
2018-09-22T06:44:05.781Z,8.68
2018-09-22T06:48:59.025Z,8.65
2018-09-22T06:53:52.273Z,10.32
2018-09-22T06:58:45.584Z,10.23
2018-09-22T07:03:38.970Z,11.80
2018-09-22T07:08:33.130Z,10.00
2018-09-22T07:13:26.386Z,9.68
2018-09-22T07:18:20.381Z,9.38
2018-09-22T07:23:15.876Z,9.10
2018-09-22T07:28:10.192Z,8.28
2018-09-22T07:33:03.500Z,8.78
2018-09-22T07:37:56.678Z,7.50
2018-09-22T07:42:50.792Z,8.00
2018-09-22T07:47:44.072Z,7.50
2018-09-22T07:52:38.085Z,7.95
2018-09-22T07:57:39.690Z,8.88
2018-09-22T08:02:33.492Z,7.87
2018-09-22T08:07:31.378Z,7.20
2018-09-22T08:12:25.799Z,7.62
2018-09-22T08:17:19.398Z,7.15
2018-09-22T08:22:14.632Z,7.28
2018-09-22T08:27:08.553Z,7.28
2018-09-22T08:32:01.931Z,6.72
2018-09-22T08:36:55.655Z,6.85
2018-09-22T08:41:48.750Z,6.97
2018-09-22T08:46:41.830Z,6.92
2018-09-22T08:51:35.355Z,7.10
2018-09-22T08:56:28.713Z,7.20
2018-09-22T09:01:22.205Z,7.00
2018-09-22T09:06:15.547Z,7.30
2018-09-22T09:11:10.053Z,7.55
2018-09-22T09:16:11.960Z,7.65
2018-09-22T09:21:05.660Z,6.75
2018-09-22T09:25:59.345Z,7.50
2018-09-22T09:30:52.840Z,7.53
2018-09-22T09:35:47.021Z,7.22
2018-09-22T09:40:40.239Z,6.90
2018-09-22T09:45:34.336Z,7.37
2018-09-22T09:50:27.583Z,8.10
2018-09-22T09:55:20.817Z,7.47
2018-09-22T10:00:17.064Z,7.95
2018-09-22T10:05:10.378Z,7.40
2018-09-22T10:10:03.752Z,7.70
2018-09-22T10:14:57.341Z,8.18
2018-09-22T10:19:50.853Z,7.08
2018-09-22T10:24:44.410Z,7.42
2018-09-22T10:29:37.616Z,7.62
2018-09-22T10:34:31.085Z,7.47
2018-09-22T10:39:28.133Z,7.50
2018-09-22T10:44:21.511Z,8.00
2018-09-22T10:49:15.291Z,7.75
2018-09-22T10:54:08.513Z,8.68
2018-09-22T10:59:02.196Z,7.42
2018-09-22T11:03:55.477Z,8.13
2018-09-22T11:08:48.640Z,7.50
2018-09-22T11:13:41.904Z,7.20
2018-09-22T11:18:35.507Z,7.12
2018-09-22T11:23:29.202Z,7.35
2018-09-22T11:28:25.347Z,7.50
2018-09-22T11:33:19.860Z,6.62
2018-09-22T11:38:13.623Z,7.28
2018-09-22T11:43:07.081Z,6.78
2018-09-22T11:48:05.452Z,7.20
2018-09-22T11:52:59.274Z,6.58
2018-09-22T12:02:55.808Z,6.67
2018-09-22T12:07:49.226Z,6.90
2018-09-22T12:12:42.916Z,6.50
2018-09-22T12:17:36.049Z,6.67
2018-09-22T12:22:30.337Z,7.45
2018-09-22T12:27:23.800Z,6.45
2018-09-22T12:32:17.541Z,6.95
2018-09-22T12:37:10.935Z,6.53
2018-09-22T12:42:04.711Z,6.17
2018-09-22T12:46:57.881Z,6.60
2018-09-22T12:51:52.449Z,6.60
2018-09-22T12:56:45.888Z,7.15
2018-09-22T13:01:39.287Z,7.40
2018-09-22T13:06:32.814Z,5.90
2018-09-22T13:11:26.114Z,7.45
2018-09-22T13:16:19.398Z,6.62
2018-09-22T13:21:13.461Z,6.28
2018-09-22T13:26:07.898Z,6.15
2018-09-22T13:31:01.170Z,6.10
2018-09-22T13:35:54.632Z,6.00
2018-09-22T13:40:49.217Z,6.20
2018-09-22T13:45:42.476Z,6.10
2018-09-22T13:50:37.276Z,6.85
2018-09-22T13:55:30.528Z,6.30
2018-09-22T14:00:23.709Z,5.80
2018-09-22T14:05:18.108Z,6.05
2018-09-22T14:10:11.466Z,6.17
2018-09-22T14:15:04.974Z,6.40
2018-09-22T14:19:59.515Z,6.12
2018-09-22T14:24:52.937Z,5.75
2018-09-22T14:29:46.262Z,10.43
2018-09-22T14:34:39.486Z,6.62
2018-09-22T14:39:32.807Z,9.93
2018-09-22T14:44:26.377Z,7.30
2018-09-22T14:49:20.675Z,6.15
2018-09-22T14:54:14.269Z,5.72
2018-09-22T14:59:07.570Z,6.00
2018-09-22T15:04:01.239Z,6.10
2018-09-22T15:08:54.902Z,6.22
2018-09-22T15:13:48.122Z,5.62
2018-09-22T15:18:41.612Z,6.25
2018-09-22T15:23:42.468Z,5.87
2018-09-22T15:28:35.998Z,6.37
2018-09-22T15:33:29.387Z,5.97
2018-09-22T15:38:22.609Z,8.20
2018-09-22T15:43:16.133Z,11.50
2018-09-22T15:48:09.414Z,7.37
2018-09-22T15:53:03.362Z,8.15
2018-09-22T15:57:57.101Z,11.43
2018-09-22T16:02:52.105Z,7.03
2018-09-22T16:07:45.276Z,7.58
2018-09-22T16:12:38.452Z,8.13
2018-09-22T16:17:32.857Z,6.72
2018-09-22T16:22:26.793Z,6.47
2018-09-22T16:27:20.431Z,6.87
2018-09-22T16:32:13.990Z,6.95
2018-09-22T16:37:11.654Z,6.42
2018-09-22T16:42:05.597Z,7.35
2018-09-22T16:46:58.864Z,11.03
2018-09-22T16:51:53.265Z,7.97
2018-09-22T16:56:48.098Z,9.48
2018-09-22T17:01:41.377Z,8.05
2018-09-22T17:06:34.818Z,7.37
2018-09-22T17:11:28.563Z,8.35
2018-09-22T17:16:24.241Z,10.23
2018-09-22T17:21:19.567Z,6.97
2018-09-22T17:26:15.271Z,7.97
2018-09-22T17:31:08.445Z,7.70
2018-09-22T17:36:02.338Z,9.93
2018-09-22T17:40:56.226Z,7.30
2018-09-22T17:45:49.529Z,6.47
2018-09-22T17:50:43.409Z,6.17
2018-09-22T17:55:38.892Z,6.17
2018-09-22T18:00:32.607Z,5.67
2018-09-22T18:05:27.025Z,5.97
2018-09-22T18:10:20.291Z,5.15
2018-09-22T18:15:13.623Z,5.50
2018-09-22T18:20:06.947Z,4.92
2018-09-22T18:25:02.286Z,4.87
2018-09-22T18:29:55.638Z,4.75
2018-09-22T18:34:49.202Z,4.40
2018-09-22T18:39:45.298Z,4.80
2018-09-22T18:44:39.075Z,4.40
2018-09-22T18:49:32.496Z,4.28
2018-09-22T18:54:25.898Z,4.28
2018-09-22T18:59:19.176Z,4.03
2018-09-22T19:04:12.707Z,4.00
2018-09-22T19:09:07.804Z,5.47
2018-09-22T19:14:06.492Z,4.10
2018-09-22T19:19:09.088Z,3.77
2018-09-22T19:24:05.706Z,4.80
2018-09-22T19:29:14.565Z,4.30
2018-09-22T19:34:11.270Z,4.50
2018-09-22T19:39:16.878Z,4.00
2018-09-22T19:44:14.481Z,3.83
2018-09-22T19:49:15.521Z,4.10
2018-09-22T19:54:09.712Z,5.85
2018-09-22T19:59:03.010Z,4.40
2018-09-22T20:03:56.255Z,3.70
2018-09-22T20:08:49.663Z,3.67
2018-09-22T20:13:43.482Z,3.72
2018-09-22T20:18:36.905Z,3.30
2018-09-22T20:23:31.857Z,3.62
2018-09-22T20:28:27.973Z,3.80
2018-09-22T20:33:22.503Z,3.77
2018-09-22T20:38:18.663Z,3.77
2018-09-22T20:43:12.823Z,3.52
2018-09-22T20:48:06.709Z,3.25
2018-09-22T20:53:00.245Z,3.10
2018-09-22T20:57:53.775Z,3.40
2018-09-22T21:02:51.041Z,3.58
2018-09-22T21:07:45.818Z,3.42
2018-09-22T21:12:40.300Z,3.37
2018-09-22T21:17:33.630Z,3.50
2018-09-22T21:22:27.547Z,3.37
2018-09-22T21:27:24.401Z,3.10
2018-09-22T21:32:17.717Z,3.30
2018-09-22T21:37:13.004Z,3.08
2018-09-22T21:42:06.126Z,2.87
2018-09-22T21:47:00.349Z,3.27
2018-09-22T21:51:53.762Z,3.05
2018-09-22T21:56:46.950Z,3.12
2018-09-22T22:01:41.888Z,2.95
2018-09-22T22:06:35.535Z,2.85
2018-09-22T22:11:29.164Z,3.08
2018-09-22T22:16:24.400Z,2.87
2018-09-22T22:21:17.817Z,3.05
2018-09-22T22:26:12.216Z,3.10
2018-09-22T22:31:06.031Z,3.20
2018-09-22T22:35:59.252Z,3.37
2018-09-22T22:40:54.132Z,3.20
2018-09-22T22:45:48.072Z,3.15
2018-09-22T22:50:41.329Z,3.05
2018-09-22T22:55:35.219Z,3.70
2018-09-22T23:00:28.479Z,3.10
2018-09-22T23:05:21.961Z,3.50
2018-09-22T23:10:16.261Z,3.33
2018-09-22T23:15:09.627Z,3.20
2018-09-22T23:20:04.134Z,3.30
2018-09-22T23:25:00.999Z,2.98
2018-09-22T23:29:56.061Z,3.20
2018-09-22T23:34:49.510Z,3.17
2018-09-22T23:39:42.791Z,3.72
2018-09-22T23:44:36.158Z,3.50
2018-09-22T23:49:29.972Z,3.10
2018-09-22T23:54:24.756Z,3.02
2018-09-22T23:59:19.569Z,3.00
